Time;durP1;ratioP1;P1;durP2;ratioP2;P2;SDS_P1;SDS_P2;PMS_P1;PMS_P2;Temp;Humidity;BMP_temperature;BMP_pressure;BME280_temperature;BME280_humidity;BME280_pressure;Samples;Min_cycle;Max_cycle;Signal;HPM_P1;HPM_P2
2022/07/29 00:00:16;;;;;;;2.63;1.17;;;;;;;17.41;58.37;101585.19;5008444;28;20091;-78
2022/07/29 00:02:42;;;;;;;5.13;1.30;;;;;;;17.38;58.67;101583.66;5000049;28;20177;-78
2022/07/29 00:05:09;;;;;;;3.40;1.60;;;;;;;17.36;58.83;101585.63;5000746;28;20693;-77
2022/07/29 00:07:35;;;;;;;4.88;1.48;;;;;;;17.42;58.64;101584.22;5004285;28;20041;-78
2022/07/29 00:10:00;;;;;;;3.63;1.50;;;;;;;17.31;59.02;101585.19;5008947;28;20395;-78
2022/07/29 00:12:26;;;;;;;4.05;1.58;;;;;;;17.38;59.14;101582.81;5006798;28;20026;-78
2022/07/29 00:14:52;;;;;;;4.53;1.70;;;;;;;17.37;58.97;101576.66;4999166;28;20447;-78
2022/07/29 00:17:17;;;;;;;3.75;1.75;;;;;;;17.40;58.97;101571.06;5000876;28;20022;-78
2022/07/29 00:19:43;;;;;;;4.95;1.63;;;;;;;17.33;59.38;101580.56;5007749;28;20036;-78
2022/07/29 00:22:09;;;;;;;9.35;2.00;;;;;;;17.35;59.45;101578.63;4994843;28;20506;-79
2022/07/29 00:24:34;;;;;;;7.47;1.50;;;;;;;17.40;59.50;101581.69;5005256;28;20042;-85
2022/07/29 00:26:59;;;;;;;5.63;1.80;;;;;;;17.32;60.02;101578.91;5000072;28;20045;-79
2022/07/29 00:29:25;;;;;;;4.32;1.45;;;;;;;17.37;60.35;101576.66;5005858;28;20025;-79
2022/07/29 00:31:50;;;;;;;7.03;1.40;;;;;;;17.34;60.72;101582.25;4995413;28;20077;-86
2022/07/29 00:36:59;;;;;;;4.40;1.60;;;;;;;17.34;60.42;101589.41;5001360;28;20611;-78
2022/07/29 00:39:25;;;;;;;4.70;1.60;;;;;;;17.38;60.12;101588.13;5004523;28;20033;-78
2022/07/29 00:41:50;;;;;;;6.00;2.63;;;;;;;17.28;60.30;101597.94;4993199;28;20068;-77
2022/07/29 00:44:16;;;;;;;5.90;1.80;;;;;;;17.32;60.82;101607.31;5006327;28;20022;-77
2022/07/29 00:46:41;;;;;;;4.40;1.85;;;;;;;17.32;60.00;101616.13;5008259;28;20069;-77
2022/07/29 00:49:07;;;;;;;6.32;1.60;;;;;;;17.31;60.64;101618.94;4999177;28;20030;-79
2022/07/29 00:51:36;;;;;;;4.80;1.50;;;;;;;17.32;60.99;101617.97;5008675;28;20554;-78
2022/07/29 00:54:04;;;;;;;6.63;2.30;;;;;;;17.35;60.56;101609.69;4995368;28;20088;-77
2022/07/29 00:56:31;;;;;;;4.32;1.67;;;;;;;17.32;61.18;101597.53;5003457;28;20386;-77
2022/07/29 00:58:57;;;;;;;4.72;1.88;;;;;;;17.27;63.19;101593.59;5001328;28;20100;-77
2022/07/29 01:01:25;;;;;;;5.63;1.70;;;;;;;17.20;62.93;101585.31;4998389;28;20030;-77
2022/07/29 01:03:50;;;;;;;7.28;1.88;;;;;;;17.12;63.66;101588.66;5007235;28;20065;-78
2022/07/29 01:06:17;;;;;;;8.55;1.83;;;;;;;17.02;62.96;101579.00;4998745;28;20460;-78
2022/07/29 01:08:44;;;;;;;7.90;2.30;;;;;;;16.94;65.32;101560.22;5009090;28;20514;-86
2022/07/29 01:11:10;;;;;;;3.92;1.80;;;;;;;16.82;65.69;101554.19;5004305;28;20108;-87
2022/07/29 01:13:36;;;;;;;4.25;1.90;;;;;;;16.74;66.46;101546.88;4997284;28;20062;-77
2022/07/29 01:16:12;;;;;;;6.03;1.90;;;;;;;16.75;67.52;101548.56;4994575;28;20397;-77
2022/07/29 01:18:44;;;;;;;5.03;1.88;;;;;;;16.68;66.61;101538.63;5004261;28;20389;-78
2022/07/29 01:21:23;;;;;;;5.07;1.77;;;;;;;16.66;66.11;101530.78;5002555;28;20037;-77
2022/07/29 01:24:15;;;;;;;4.18;2.10;;;;;;;16.64;65.42;101519.41;5004063;28;20048;-77
2022/07/29 01:27:00;;;;;;;4.85;1.70;;;;;;;16.58;65.25;101510.19;4990728;28;20085;-78
2022/07/29 01:29:43;;;;;;;8.23;2.15;;;;;;;16.59;64.76;101506.56;5016130;28;20030;-77
2022/07/29 01:32:13;;;;;;;5.90;2.15;;;;;;;16.58;65.62;101496.06;5008607;28;20803;-78
2022/07/29 01:34:45;;;;;;;5.40;2.30;;;;;;;16.60;65.34;101489.63;5004937;28;20022;-78
2022/07/29 01:37:21;;;;;;;5.88;2.15;;;;;;;16.62;65.28;101494.81;5001891;28;20464;-78
2022/07/29 01:39:49;;;;;;;4.57;2.03;;;;;;;16.60;64.87;101494.09;5002262;28;20045;-78
2022/07/29 01:42:26;;;;;;;6.28;2.35;;;;;;;16.56;64.63;101500.66;5003715;28;20017;-78
2022/07/29 01:45:12;;;;;;;5.47;2.03;;;;;;;16.59;65.59;101500.41;5002310;28;20030;-78
2022/07/29 01:47:43;;;;;;;5.88;2.13;;;;;;;16.61;65.45;101499.28;5010573;28;20861;-78
2022/07/29 01:50:14;;;;;;;5.95;2.33;;;;;;;16.58;66.14;101501.38;4997932;28;20111;-78
2022/07/29 01:52:46;;;;;;;6.07;2.20;;;;;;;16.59;67.10;101506.56;5001621;28;20484;-79
2022/07/29 01:55:16;;;;;;;6.82;2.20;;;;;;;16.56;65.93;101508.63;4999211;28;20041;-79
2022/07/29 01:57:44;;;;;;;5.53;2.53;;;;;;;16.51;66.04;101513.53;5008882;28;20103;-78
2022/07/29 02:00:11;;;;;;;9.00;2.80;;;;;;;16.50;66.03;101507.38;5008409;28;20025;-79
2022/07/29 02:02:38;;;;;;;4.18;2.10;;;;;;;16.40;66.04;101502.97;5010208;28;20025;-77
2022/07/29 02:05:07;;;;;;;4.97;2.10;;;;;;;16.36;66.08;101504.22;5010386;28;20021;-77
2022/07/29 02:07:34;;;;;;;6.45;2.08;;;;;;;16.32;66.55;101498.34;5007515;28;20117;-78
2022/07/29 02:10:02;;;;;;;6.22;2.40;;;;;;;16.36;67.15;101491.78;5010038;28;20038;-78
2022/07/29 02:12:30;;;;;;;3.92;2.20;;;;;;;16.29;67.22;101486.19;5008010;28;20123;-77
2022/07/29 02:15:00;;;;;;;4.50;1.98;;;;;;;16.29;67.47;101488.00;5009227;28;20022;-77
2022/07/29 02:17:33;;;;;;;3.83;2.10;;;;;;;16.26;67.05;101494.41;4991587;28;20105;-77
2022/07/29 02:20:00;;;;;;;5.63;2.13;;;;;;;16.26;67.53;101494.41;4995960;28;20411;-77
2022/07/29 02:22:30;;;;;;;6.13;2.33;;;;;;;16.28;67.62;101487.16;5000060;28;20026;-77
2022/07/29 02:24:58;;;;;;;5.05;2.20;;;;;;;16.32;67.38;101486.88;5003666;28;21043;-77
2022/07/29 02:27:27;;;;;;;8.77;2.05;;;;;;;16.33;67.59;101488.56;4992381;28;20133;-77
2022/07/29 02:29:53;;;;;;;7.60;2.30;;;;;;;16.35;67.28;101483.97;4992422;28;20671;-77
2022/07/29 02:32:20;;;;;;;4.63;2.03;;;;;;;16.37;67.75;101480.19;4994626;28;20026;-78
2022/07/29 02:34:47;;;;;;;5.38;2.10;;;;;;;16.35;67.24;101491.91;5001562;28;20022;-78
2022/07/29 02:37:13;;;;;;;9.73;2.40;;;;;;;16.29;67.23;101488.84;4993128;28;20058;-78
2022/07/29 02:39:42;;;;;;;8.13;2.28;;;;;;;16.26;67.64;101489.09;5005812;28;20488;-78
2022/07/29 02:42:11;;;;;;;5.85;2.55;;;;;;;16.25;67.88;101482.13;5002400;28;20034;-78
2022/07/29 02:44:37;;;;;;;7.55;2.30;;;;;;;16.24;67.80;101475.13;5000067;28;20034;-78
2022/07/29 02:47:07;;;;;;;5.35;2.10;;;;;;;16.17;67.99;101470.50;4995326;28;20026;-78
2022/07/29 02:49:48;;;;;;;7.13;2.17;;;;;;;16.21;67.69;101483.38;5005848;28;20097;-78
2022/07/29 02:52:25;;;;;;;4.00;2.10;;;;;;;16.24;68.20;101474.28;4998156;28;20477;-77
2022/07/29 02:55:49;;;;;;;8.20;2.78;;;;;;;16.28;68.72;101488.97;5002241;28;20127;-78
2022/07/29 02:58:40;;;;;;;6.50;2.28;;;;;;;16.23;69.64;101483.22;4973477;28;20050;-79
2022/07/29 03:01:14;;;;;;;6.03;2.42;;;;;;;16.20;70.86;101489.66;4986008;28;20084;-86
2022/07/29 03:03:43;;;;;;;6.07;2.65;;;;;;;16.19;71.19;101492.44;5004083;28;20137;-79
2022/07/29 03:06:11;;;;;;;7.32;2.30;;;;;;;16.26;72.28;101494.41;4995562;28;20066;-86
2022/07/29 03:08:40;;;;;;;4.22;2.78;;;;;;;16.27;71.10;101493.44;5000160;28;20033;-78
2022/07/29 03:11:11;;;;;;;5.38;2.35;;;;;;;16.29;71.31;101501.28;4993032;28;20077;-79
2022/07/29 03:13:36;;;;;;;7.22;2.63;;;;;;;16.19;70.35;101498.59;5008182;28;20025;-77
2022/07/29 03:16:02;;;;;;;7.35;2.53;;;;;;;16.15;71.21;101499.00;5009484;28;20025;-78
2022/07/29 03:18:28;;;;;;;7.00;2.60;;;;;;;16.21;70.95;101501.94;5008813;28;20025;-78
2022/07/29 03:20:53;;;;;;;8.65;2.85;;;;;;;16.20;70.93;101494.13;5009387;28;20026;-78
2022/07/29 03:23:22;;;;;;;6.25;2.83;;;;;;;16.15;70.71;101494.53;5009310;28;20084;-78
2022/07/29 03:25:48;;;;;;;6.38;2.85;;;;;;;16.16;70.19;101487.41;5008886;28;20049;-78
2022/07/29 03:28:15;;;;;;;7.55;2.70;;;;;;;16.05;70.87;101484.84;5007367;28;20034;-78
2022/07/29 03:30:41;;;;;;;6.78;2.70;;;;;;;16.03;70.79;101482.31;4992778;28;20034;-78
2022/07/29 03:33:06;;;;;;;5.53;2.83;;;;;;;16.07;70.81;101478.44;4994130;28;20523;-78
2022/07/29 03:35:32;;;;;;;5.70;3.03;;;;;;;16.01;70.90;101489.59;4991719;28;20038;-78
2022/07/29 03:37:58;;;;;;;5.93;3.05;;;;;;;15.95;70.75;101482.97;5004336;28;20011;-78
2022/07/29 03:40:31;;;;;;;9.10;2.45;;;;;;;15.97;70.49;101482.81;4991747;28;20037;-78
2022/07/29 03:42:58;;;;;;;6.47;2.58;;;;;;;15.91;70.66;101484.19;5001016;28;20474;-78
2022/07/29 03:45:25;;;;;;;7.95;2.58;;;;;;;15.79;70.89;101487.91;4990469;28;20030;-78
2022/07/29 03:47:55;;;;;;;4.03;2.50;;;;;;;15.73;71.54;101495.56;4995108;28;20093;-78
2022/07/29 03:50:21;;;;;;;4.80;2.42;;;;;;;15.70;71.70;101487.88;5001344;28;20028;-78
2022/07/29 03:52:47;;;;;;;8.00;2.45;;;;;;;15.63;72.00;101491.06;5002298;28;20105;-78
2022/07/29 03:55:14;;;;;;;4.53;2.42;;;;;;;15.65;71.79;101483.81;4997435;28;20468;-78
2022/07/29 03:57:40;;;;;;;5.75;2.53;;;;;;;15.66;72.17;101484.66;5008738;28;20079;-78
2022/07/29 04:00:07;;;;;;;5.78;3.00;;;;;;;15.57;72.32;101480.91;4991875;28;20034;-79
2022/07/29 04:02:36;;;;;;;7.10;3.38;;;;;;;15.56;72.39;101483.69;5000629;28;20032;-78
2022/07/29 04:05:01;;;;;;;6.68;2.58;;;;;;;15.50;72.58;101479.75;4997503;28;20030;-78
2022/07/29 04:07:27;;;;;;;7.47;2.80;;;;;;;15.48;72.68;101487.00;5007302;28;20459;-79
2022/07/29 04:09:52;;;;;;;6.82;2.88;;;;;;;15.47;72.88;101474.69;4996336;28;20026;-77
2022/07/29 04:12:17;;;;;;;6.00;2.70;;;;;;;15.41;73.29;101469.09;5004452;28;20021;-77
2022/07/29 04:14:43;;;;;;;8.68;2.67;;;;;;;15.34;73.52;101466.09;5002648;28;20034;-77
2022/07/29 04:17:10;;;;;;;7.43;2.90;;;;;;;15.32;73.68;101476.84;4997968;28;20399;-78
2022/07/29 04:19:36;;;;;;;6.60;2.72;;;;;;;15.26;74.02;101469.41;5008392;28;20092;-77
2022/07/29 04:22:01;;;;;;;7.65;3.08;;;;;;;15.21;74.68;101465.44;4995359;28;20018;-77
2022/07/29 04:24:27;;;;;;;6.13;2.47;;;;;;;15.15;74.59;101468.59;4999731;28;20045;-77
2022/07/29 04:26:52;;;;;;;6.90;2.83;;;;;;;15.13;74.87;101471.38;4998808;28;20253;-78
2022/07/29 04:29:18;;;;;;;4.80;2.60;;;;;;;15.14;74.98;101467.75;4992182;28;20393;-77
2022/07/29 04:31:45;;;;;;;4.70;2.60;;;;;;;15.11;75.25;101467.19;4997991;28;20480;-77
2022/07/29 04:34:12;;;;;;;4.88;2.80;;;;;;;15.10;75.66;101473.44;5009810;28;20076;-78
2022/07/29 04:36:41;;;;;;;5.93;2.65;;;;;;;15.10;76.07;101487.53;5011846;28;20022;-78
2022/07/29 04:39:06;;;;;;;5.07;2.53;;;;;;;15.20;75.51;101483.16;5011864;28;20029;-78
2022/07/29 04:41:31;;;;;;;7.80;2.70;;;;;;;15.21;75.76;101494.59;5011087;28;20036;-78
2022/07/29 04:43:57;;;;;;;5.78;2.70;;;;;;;15.25;75.90;101499.53;5012379;28;20060;-78
2022/07/29 04:46:22;;;;;;;9.02;3.08;;;;;;;15.23;76.15;101501.47;5009573;28;20057;-78
2022/07/29 04:48:48;;;;;;;8.65;3.13;;;;;;;15.19;76.55;101512.44;5010878;28;20025;-79
2022/07/29 04:51:14;;;;;;;11.60;3.30;;;;;;;15.13;76.88;101513.78;4996766;28;20395;-79
2022/07/29 04:53:40;;;;;;;18.50;3.42;;;;;;;15.23;76.68;101519.19;5001163;28;20029;-77
2022/07/29 04:56:05;;;;;;;8.30;3.70;;;;;;;15.25;76.74;101515.44;5004272;28;20101;-78
2022/07/29 04:58:31;;;;;;;8.93;3.17;;;;;;;15.28;76.91;101531.09;4996856;28;20022;-78
2022/07/29 05:00:56;;;;;;;7.50;3.55;;;;;;;15.23;77.10;101535.09;5001735;28;20030;-78
2022/07/29 05:03:21;;;;;;;6.90;3.25;;;;;;;15.31;76.92;101533.50;5005016;28;20720;-78
2022/07/29 05:05:47;;;;;;;5.05;3.42;;;;;;;15.36;76.82;101533.13;5008243;28;20024;-77
2022/07/29 05:08:12;;;;;;;8.55;3.58;;;;;;;15.39;76.80;101532.00;5004108;28;20022;-78
2022/07/29 05:10:37;;;;;;;10.77;3.70;;;;;;;15.36;77.20;101544.56;4992867;28;20026;-78
2022/07/29 05:13:07;;;;;;;6.40;3.45;;;;;;;15.35;77.18;101547.34;5003430;28;20021;-78
2022/07/29 05:15:34;;;;;;;7.85;3.90;;;;;;;15.26;77.43;101548.94;4992956;28;20061;-78
2022/07/29 05:18:00;;;;;;;12.13;3.97;;;;;;;15.21;77.77;101543.19;5006007;28;20183;-78
2022/07/29 05:20:28;;;;;;;9.60;3.85;;;;;;;15.27;77.96;101544.50;4998986;28;20068;-77
2022/07/29 05:22:57;;;;;;;5.60;3.53;;;;;;;15.28;77.88;101543.53;4997229;28;20491;-78
2022/07/29 05:25:24;;;;;;;5.65;3.50;;;;;;;15.31;77.73;101548.56;5006164;28;20053;-78
2022/07/29 05:27:49;;;;;;;10.20;4.20;;;;;;;15.28;78.00;101544.34;4992608;28;20066;-78
2022/07/29 05:30:15;;;;;;;6.30;3.67;;;;;;;15.31;77.70;101545.91;4997498;28;20066;-78
2022/07/29 05:32:41;;;;;;;8.32;3.95;;;;;;;15.22;78.12;101541.38;5006254;28;20030;-78
2022/07/29 05:35:08;;;;;;;11.63;4.03;;;;;;;15.27;78.05;101544.50;4997132;28;20026;-78
2022/07/29 05:37:33;;;;;;;7.57;4.20;;;;;;;15.24;78.43;101542.94;5004206;28;20042;-78
2022/07/29 05:39:58;;;;;;;11.85;4.07;;;;;;;15.27;78.15;101536.53;4995816;28;20061;-78
2022/07/29 05:42:25;;;;;;;7.00;4.15;;;;;;;15.31;78.29;101543.25;4999589;28;20033;-78
2022/07/29 05:44:51;;;;;;;8.75;4.10;;;;;;;15.38;78.24;101544.44;4998407;28;20513;-78
2022/07/29 05:47:16;;;;;;;9.68;4.45;;;;;;;15.34;78.44;101543.84;4996448;28;20045;-78
2022/07/29 05:49:42;;;;;;;7.50;4.13;;;;;;;15.41;78.30;101533.56;5000448;28;20030;-80
2022/07/29 05:52:07;;;;;;;10.45;4.65;;;;;;;15.34;78.50;101541.19;4999929;28;20038;-79
2022/07/29 05:54:32;;;;;;;7.75;4.50;;;;;;;15.44;78.32;101538.63;5000330;28;20043;-79
2022/07/29 05:56:58;;;;;;;7.65;4.38;;;;;;;15.47;78.05;101538.34;4997805;28;20023;-79
2022/07/29 05:59:24;;;;;;;6.55;4.13;;;;;;;15.45;78.19;101535.00;5001764;28;20057;-77
2022/07/29 06:01:49;;;;;;;7.60;4.40;;;;;;;15.42;78.42;101542.38;4995893;28;20026;-78
2022/07/29 06:04:14;;;;;;;8.65;4.50;;;;;;;15.57;78.11;101544.56;4998721;28;20023;-78
2022/07/29 06:06:40;;;;;;;5.68;4.28;;;;;;;15.68;77.84;101543.72;5002245;28;20499;-79
2022/07/29 06:09:05;;;;;;;8.77;4.90;;;;;;;15.76;77.20;101535.09;5008098;28;20431;-78
2022/07/29 06:11:30;;;;;;;8.43;4.88;;;;;;;15.73;77.22;101538.88;4997745;28;20539;-78
2022/07/29 06:13:56;;;;;;;6.32;4.75;;;;;;;15.71;77.66;101529.34;5000723;28;20120;-77
2022/07/29 06:16:21;;;;;;;7.68;4.45;;;;;;;15.74;77.95;101545.00;5003808;28;20506;-78
2022/07/29 06:18:46;;;;;;;9.65;4.60;;;;;;;15.82;76.94;101543.38;4992418;28;20507;-78
2022/07/29 06:21:12;;;;;;;8.70;4.93;;;;;;;15.89;77.59;101538.38;5003296;28;20022;-79
2022/07/29 06:23:40;;;;;;;9.00;4.72;;;;;;;15.90;77.33;101540.06;4998576;28;20017;-78
2022/07/29 06:26:06;;;;;;;6.90;4.63;;;;;;;15.95;77.07;101545.81;5003635;28;20057;-78
2022/07/29 06:28:33;;;;;;;8.68;5.25;;;;;;;15.94;76.81;101544.16;5004043;28;20052;-78
2022/07/29 06:30:59;;;;;;;9.07;4.80;;;;;;;15.99;76.79;101537.47;4992938;28;20136;-78
2022/07/29 06:33:24;;;;;;;9.55;4.85;;;;;;;16.01;76.31;101547.09;5003522;28;20028;-78
2022/07/29 06:35:50;;;;;;;10.57;4.72;;;;;;;16.01;75.59;101544.44;5000348;28;20410;-78
2022/07/29 06:38:15;;;;;;;9.57;6.10;;;;;;;15.96;76.60;101550.16;5003262;28;20464;-78
2022/07/29 06:41:00;;;;;;;7.40;5.35;;;;;;;15.94;76.58;101539.69;4996380;28;20053;-78
2022/07/29 06:43:45;;;;;;;9.23;5.00;;;;;;;15.92;76.50;101544.28;5003211;28;20034;-78
2022/07/29 06:46:15;;;;;;;9.40;4.65;;;;;;;15.89;76.72;101549.00;5002905;28;20034;-78
2022/07/29 06:48:42;;;;;;;8.10;4.93;;;;;;;15.94;76.80;101554.75;4993918;28;20038;-79
2022/07/29 06:51:08;;;;;;;7.68;4.60;;;;;;;16.02;76.65;101551.47;5006931;28;20022;-78
2022/07/29 06:53:34;;;;;;;9.70;4.88;;;;;;;16.02;76.53;101549.66;5008097;28;20034;-78
2022/07/29 06:56:00;;;;;;;9.48;4.75;;;;;;;16.03;76.09;101550.50;5004751;28;20057;-78
2022/07/29 06:58:27;;;;;;;10.32;5.00;;;;;;;16.07;76.45;101555.41;5006787;28;20109;-78
2022/07/29 07:00:53;;;;;;;7.53;4.95;;;;;;;16.15;76.77;101555.59;5002566;28;20033;-78
2022/07/29 07:03:19;;;;;;;9.18;5.18;;;;;;;16.11;76.00;101556.00;5000494;28;20477;-79
2022/07/29 07:05:46;;;;;;;6.15;4.65;;;;;;;16.26;75.36;101563.47;5000531;28;20100;-77
2022/07/29 07:08:12;;;;;;;9.38;5.18;;;;;;;16.29;75.49;101563.19;4997487;28;20106;-77
2022/07/29 07:10:38;;;;;;;8.88;5.78;;;;;;;16.44;75.13;101569.00;5008887;28;20455;-78
2022/07/29 07:13:04;;;;;;;9.85;5.32;;;;;;;16.42;74.81;101567.47;5004606;28;20105;-78
2022/07/29 07:15:30;;;;;;;10.50;5.50;;;;;;;16.58;74.89;101567.78;5004183;28;20022;-78
2022/07/29 07:17:55;;;;;;;12.35;5.15;;;;;;;16.76;74.86;101568.84;5002710;28;20014;-78
2022/07/29 07:20:21;;;;;;;15.63;5.22;;;;;;;17.05;73.98;101568.06;5007343;28;20420;-78
2022/07/29 07:22:46;;;;;;;7.30;4.63;;;;;;;17.44;72.93;101569.78;4993186;28;20049;-79
2022/07/29 07:25:13;;;;;;;10.63;5.35;;;;;;;17.48;71.71;101573.84;4994312;28;20034;-78
2022/07/29 07:27:41;;;;;;;7.85;5.15;;;;;;;17.65;71.10;101574.97;5000286;28;20034;-77
2022/07/29 07:30:07;;;;;;;6.85;4.80;;;;;;;17.91;70.38;101569.91;5007979;28;20072;-78
2022/07/29 07:32:33;;;;;;;7.03;4.15;;;;;;;18.17;69.51;101568.31;4996627;28;20030;-79
2022/07/29 07:34:59;;;;;;;10.52;4.40;;;;;;;18.36;69.15;101569.22;5006822;28;20026;-78
2022/07/29 07:37:25;;;;;;;13.50;4.47;;;;;;;18.71;67.39;101568.53;5001613;28;20030;-78
2022/07/29 07:39:51;;;;;;;8.32;4.18;;;;;;;19.02;65.88;101564.56;4998734;28;20500;-79
2022/07/29 07:42:17;;;;;;;7.57;4.68;;;;;;;19.23;65.58;101572.28;4996305;28;20850;-77
2022/07/29 07:44:42;;;;;;;7.45;4.20;;;;;;;19.37;65.02;101565.56;5007175;28;20033;-77
2022/07/29 07:47:11;;;;;;;7.07;3.92;;;;;;;19.37;64.46;101577.09;5000387;28;20026;-78
2022/07/29 07:49:36;;;;;;;9.07;4.25;;;;;;;19.36;64.32;101569.22;5013162;28;20554;-78
2022/07/29 07:52:02;;;;;;;7.97;4.45;;;;;;;19.50;63.80;101570.50;5001981;28;20028;-78
2022/07/29 07:54:27;;;;;;;11.85;3.97;;;;;;;19.85;63.31;101564.31;4997661;28;20076;-78
2022/07/29 07:56:52;;;;;;;5.28;3.97;;;;;;;20.07;62.44;101562.97;5003313;28;20468;-78
2022/07/29 07:59:18;;;;;;;10.25;3.92;;;;;;;20.07;61.62;101558.47;4991708;28;20112;-78
2022/07/29 08:01:43;;;;;;;8.00;3.78;;;;;;;19.96;62.34;101562.22;4995335;28;20455;-79
2022/07/29 08:04:11;;;;;;;6.68;3.80;;;;;;;19.97;63.04;101563.88;4992755;28;20026;-78
2022/07/29 08:06:37;;;;;;;5.28;3.42;;;;;;;20.28;61.56;101558.91;4995954;28;20038;-79
2022/07/29 08:09:05;;;;;;;6.07;3.35;;;;;;;20.49;60.90;101566.56;5011406;28;20100;-80
2022/07/29 08:11:31;;;;;;;6.22;3.78;;;;;;;20.71;59.54;101565.13;5002056;28;20488;-79
2022/07/29 08:13:57;;;;;;;4.88;3.50;;;;;;;20.90;58.95;101569.38;5000229;28;20089;-79
2022/07/29 08:16:22;;;;;;;8.05;3.38;;;;;;;20.95;59.64;101559.03;5001693;28;20475;-78
2022/07/29 08:18:47;;;;;;;8.45;3.70;;;;;;;21.13;59.05;101561.56;5000914;28;20035;-80
2022/07/29 08:21:14;;;;;;;7.50;4.18;;;;;;;21.06;57.60;101568.56;4994913;28;20072;-79
2022/07/29 08:23:45;;;;;;;10.73;3.63;;;;;;;21.13;58.17;101567.75;4994925;28;21112;-79
2022/07/29 08:26:11;;;;;;;11.00;3.78;;;;;;;21.09;58.03;101570.94;5005421;28;20463;-80
2022/07/29 08:28:38;;;;;;;7.10;3.92;;;;;;;21.12;56.52;101571.44;5001556;28;20117;-80
2022/07/29 08:31:04;;;;;;;6.25;3.88;;;;;;;21.37;56.79;101569.66;4999133;28;20095;-79
2022/07/29 08:33:29;;;;;;;6.50;4.00;;;;;;;21.50;56.65;101577.19;5004316;28;20018;-80
2022/07/29 08:35:56;;;;;;;7.80;3.63;;;;;;;21.87;56.98;101576.69;5004502;28;20072;-79
2022/07/29 08:38:21;;;;;;;8.73;4.07;;;;;;;22.15;55.78;101577.19;4994416;28;20042;-79
2022/07/29 08:40:47;;;;;;;6.65;4.00;;;;;;;22.44;55.08;101574.75;5006123;28;20068;-79
2022/07/29 08:43:13;;;;;;;9.88;4.40;;;;;;;22.47;54.62;101568.22;4999710;28;20033;-79
2022/07/29 08:45:47;;;;;;;8.27;3.83;;;;;;;22.63;54.37;101573.50;5000557;28;20033;-79
2022/07/29 08:48:14;;;;;;;7.25;3.78;;;;;;;22.56;54.24;101577.88;5001711;28;20022;-79
2022/07/29 08:50:41;;;;;;;5.68;3.55;;;;;;;22.64;53.26;101582.38;5008373;28;20076;-79
2022/07/29 08:53:16;;;;;;;8.65;3.55;;;;;;;22.87;53.56;101574.44;5000423;28;20026;-79
2022/07/29 08:55:43;;;;;;;5.78;3.85;;;;;;;22.86;53.06;101580.81;5008527;28;20041;-79
2022/07/29 08:58:09;;;;;;;10.20;3.40;;;;;;;23.11;52.47;101583.16;5006599;28;20100;-79
2022/07/29 09:00:40;;;;;;;6.13;2.80;;;;;;;23.14;50.13;101581.97;4995361;28;20484;-79
2022/07/29 09:03:06;;;;;;;8.07;3.65;;;;;;;23.04;50.20;101571.47;5000622;28;20057;-79
2022/07/29 09:05:32;;;;;;;7.22;3.67;;;;;;;23.04;51.24;101576.84;4992244;28;20026;-78
2022/07/29 09:07:59;;;;;;;7.70;3.28;;;;;;;23.31;51.35;101574.66;4996704;28;20041;-77
2022/07/29 09:10:24;;;;;;;9.05;3.35;;;;;;;23.43;50.43;101571.34;4992633;28;20073;-79
2022/07/29 09:12:52;;;;;;;5.10;3.75;;;;;;;23.57;50.67;101583.19;4992949;28;20484;-79
2022/07/29 09:15:20;;;;;;;9.38;3.83;;;;;;;23.95;50.69;101575.13;4990225;28;20034;-77
2022/07/29 09:17:48;;;;;;;7.90;3.42;;;;;;;23.93;49.56;101571.78;4991705;28;20030;-78
2022/07/29 09:20:20;;;;;;;6.25;3.20;;;;;;;23.94;49.62;101578.84;5009384;28;20482;-79
2022/07/29 09:22:53;;;;;;;7.40;3.40;;;;;;;23.99;49.63;101571.88;5001138;28;20105;-79
2022/07/29 09:25:38;;;;;;;7.95;3.30;;;;;;;23.92;49.78;101576.34;5007900;28;20050;-80
2022/07/29 09:28:07;;;;;;;8.32;3.47;;;;;;;23.99;49.20;101574.56;4995476;28;20471;-78
2022/07/29 09:30:33;;;;;;;7.18;3.00;;;;;;;24.15;48.24;101578.13;5000129;28;20026;-78
2022/07/29 09:33:01;;;;;;;5.82;2.78;;;;;;;24.35;47.76;101577.41;4999652;28;20085;-79
2022/07/29 09:35:27;;;;;;;5.68;2.58;;;;;;;24.48;48.16;101576.78;5010327;28;20060;-79
2022/07/29 09:37:53;;;;;;;3.92;2.70;;;;;;;24.49;46.78;101577.63;5002701;28;20496;-78
2022/07/29 09:40:27;;;;;;;6.07;2.95;;;;;;;24.40;47.42;101573.31;4996074;28;20052;-79
2022/07/29 09:42:56;;;;;;;5.72;3.00;;;;;;;23.94;47.63;101578.84;4990210;28;20479;-79
2022/07/29 09:45:30;;;;;;;4.30;2.58;;;;;;;24.45;48.15;101573.63;5008417;28;20463;-78
2022/07/29 09:48:00;;;;;;;7.53;2.40;;;;;;;24.75;46.78;101575.25;5002119;28;20129;-78
2022/07/29 09:50:46;;;;;;;7.55;3.20;;;;;;;24.41;47.52;101577.69;4990104;28;20383;-79
2022/07/29 09:53:11;;;;;;;7.53;2.65;;;;;;;24.64;46.82;101570.34;4992427;28;20034;-78
2022/07/29 09:55:50;;;;;;;6.47;2.50;;;;;;;24.84;46.07;101566.06;5006619;28;20057;-79
2022/07/29 09:58:17;;;;;;;7.30;2.33;;;;;;;24.85;44.72;101565.03;4994866;28;20034;-79
2022/07/29 10:00:44;;;;;;;5.75;2.55;;;;;;;25.03;44.28;101574.56;5003755;28;20026;-78
2022/07/29 10:03:11;;;;;;;7.55;2.53;;;;;;;24.95;43.66;101570.94;4992559;28;20030;-79
2022/07/29 10:05:37;;;;;;;10.57;2.83;;;;;;;25.03;43.37;101570.00;5004747;28;20049;-79
2022/07/29 10:08:02;;;;;;;5.97;2.10;;;;;;;25.13;43.56;101569.69;5000418;28;20057;-79
2022/07/29 10:10:28;;;;;;;3.65;2.10;;;;;;;25.34;43.56;101564.31;4998334;28;20339;-78
2022/07/29 10:12:57;;;;;;;6.18;1.90;;;;;;;25.49;43.10;101562.38;4996075;28;20471;-79
2022/07/29 10:15:26;;;;;;;5.53;2.25;;;;;;;25.59;43.44;101564.72;5000788;28;20017;-78
2022/07/29 10:17:53;;;;;;;4.97;2.17;;;;;;;25.65;41.51;101568.53;4999402;28;20030;-78
2022/07/29 10:20:20;;;;;;;5.68;2.13;;;;;;;25.70;42.06;101561.56;4998053;28;20041;-78
2022/07/29 10:22:47;;;;;;;6.50;2.90;;;;;;;25.80;41.50;101563.91;4999659;28;20088;-79
2022/07/29 10:25:14;;;;;;;6.18;2.83;;;;;;;25.99;42.95;101555.13;4999836;28;20803;-80
2022/07/29 10:27:39;;;;;;;9.00;2.80;;;;;;;25.96;41.65;101558.22;4999972;28;20074;-79
2022/07/29 10:30:06;;;;;;;7.45;2.20;;;;;;;25.89;40.39;101555.47;5000979;28;20053;-79
2022/07/29 10:33:01;;;;;;;8.05;2.45;;;;;;;25.99;42.36;101565.06;4999086;28;20045;-79
2022/07/29 10:35:57;;;;;;;4.95;2.40;;;;;;;25.98;42.21;101561.53;4999109;28;20387;-79
2022/07/29 10:39:05;;;;;;;9.00;2.30;;;;;;;26.21;42.74;101559.41;5006314;28;20097;-79
2022/07/29 10:41:46;;;;;;;6.68;2.20;;;;;;;26.34;41.79;101552.44;4998278;28;20029;-79
2022/07/29 10:44:20;;;;;;;8.15;2.60;;;;;;;25.84;41.82;101557.09;5000468;28;20075;-80
2022/07/29 10:46:47;;;;;;;8.98;2.33;;;;;;;25.98;41.85;101558.00;5002719;28;20039;-79
2022/07/29 10:49:24;;;;;;;3.80;1.90;;;;;;;25.98;40.76;101548.06;4999744;28;20046;-80
2022/07/29 10:51:49;;;;;;;10.05;2.85;;;;;;;25.93;39.25;101550.50;5001887;28;20045;-80
2022/07/29 10:54:15;;;;;;;5.53;2.25;;;;;;;25.88;40.06;101547.59;5001704;28;20022;-80
2022/07/29 10:56:41;;;;;;;5.38;2.22;;;;;;;26.04;41.01;101547.28;5010727;28;20021;-79
2022/07/29 10:59:21;;;;;;;4.93;2.10;;;;;;;26.35;41.58;101546.84;4993279;28;20050;-79
2022/07/29 11:01:49;;;;;;;6.03;2.33;;;;;;;26.19;40.11;101550.69;4999807;28;20451;-80
2022/07/29 11:04:15;;;;;;;6.35;2.33;;;;;;;26.29;40.13;101544.94;5002399;28;20702;-79
2022/07/29 11:07:02;;;;;;;5.65;2.20;;;;;;;26.46;41.38;101550.88;5007851;28;20030;-79
2022/07/29 11:09:30;;;;;;;7.15;2.53;;;;;;;26.38;40.32;101554.53;4997848;28;20476;-80
2022/07/29 11:11:56;;;;;;;6.05;2.55;;;;;;;26.56;40.72;101545.09;5011760;28;20022;-80
2022/07/29 11:14:52;;;;;;;6.32;2.40;;;;;;;26.71;41.52;101543.91;5013570;28;20036;-78
2022/07/29 11:17:20;;;;;;;5.85;2.10;;;;;;;26.94;40.35;101542.72;4995696;28;20427;-79
2022/07/29 11:19:46;;;;;;;4.75;2.20;;;;;;;27.12;39.54;101551.94;5006811;28;20696;-78
2022/07/29 11:22:31;;;;;;;4.07;1.88;;;;;;;27.07;40.32;101549.00;5002001;28;20026;-78
2022/07/29 11:25:26;;;;;;;8.32;2.10;;;;;;;27.22;40.55;101546.16;4993071;28;20061;-79
2022/07/29 11:27:54;;;;;;;7.30;2.08;;;;;;;26.97;37.87;101545.84;4985972;28;20042;-79
2022/07/29 11:30:20;;;;;;;6.75;2.15;;;;;;;27.28;39.08;101548.03;4995115;28;20109;-79
2022/07/29 11:32:46;;;;;;;4.68;2.03;;;;;;;27.16;38.84;101546.94;5005747;28;20105;-79